• Join FlightAware (Why Join?)
  • Login
  • US Flag 
03:40AM EDT


 

Airport Tracker/Info


-or-


 

Live Flight TrackerFlight Track Log ✈ UAL395 ✈ 30-Apr-2013 ✈ CYYC - KIAH

Flight Track Log - Related Links

Times and Time Zones

All times are in EDT time to prevent confusion due to time zone crossing. See the UAL395 flight status page for this flight to view local times or setup timezone preferences in your user account.

Time Position Orientation Groundspeed Altitude Reporting Facility
EDT Latitude Longitude Course Direction KTS MPH feet Rate Location/Type
07:12PM 51.1167 -114.0333 165° South 150 173 5,600  Level Edmonton Center
07:13PM 51.1500 -114.1000 309° West 200 230 7,300 1,920 Climbing Edmonton Center
07:14PM 51.1167 -114.1500 223° Southwest 270 311 9,500 1,980 Climbing Edmonton Center
07:15PM 51.0167 -114.1500 180° South 330 380 11,300 2,040 Climbing Edmonton Center
07:16PM 50.9000 -114.1333 175° South 360 414 13,600 2,220 Climbing Edmonton Center
07:17PM 50.4944 -113.7333 165° South  Level FlightAware Approximate
07:17PM 50.8000 -114.1333 180° South 380 437 15,800  Level Edmonton Center
07:18PM 50.7000 -114.1167 174° South 390 449 18,200 2,100 Climbing Edmonton Center
07:19PM 50.5833 -114.0833 170° South 400 460 20,000 2,400 Climbing Edmonton Center
07:20PM 50.4833 -114.0667 174° South 400 460 23,100 2,100 Climbing Edmonton Center
07:21PM 50.3667 -114.0500 175° South 390 449 24,200 1,380 Climbing Edmonton Center
07:22PM 50.2833 -113.9500 143° Southeast 410 472 25,900 1,620 Climbing Edmonton Center
07:23PM 50.1833 -113.8167 139° Southeast 430 495 27,500 1,440 Climbing Edmonton Center
07:24PM 50.1000 -113.7000 138° Southeast 440 506 28,800 1,200 Climbing Edmonton Center
07:25PM 50.0000 -113.5500 136° Southeast 450 518 29,900 1,140 Climbing Edmonton Center
07:26PM 49.9000 -113.4167 139° Southeast 460 529 31,100 1,380 Climbing Edmonton Center
07:27PM 49.8000 -113.2833 139° Southeast 470 541 32,700 1,320 Climbing Edmonton Center
07:28PM 49.7167 -113.1500 134° Southeast 470 541 33,800 1,200 Climbing Edmonton Center
07:29PM 49.6000 -113.0333 147° Southeast 470 541 35,100 1,200 Climbing Edmonton Center
07:30PM 49.5167 -112.9167 138° Southeast 460 529 36,200 900 Climbing Edmonton Center
07:31PM 49.4000 -112.7667 140° Southeast 460 529 37,000 360 Climbing Edmonton Center
07:32PM 49.3167 -112.6333 134° Southeast 460 529 37,000  Level Edmonton Center
07:33PM 49.2167 -112.5000 139° Southeast 470 541 37,000  Level Edmonton Center
07:34PM 49.1167 -112.3833 143° Southeast 480 552 37,000  Level Edmonton Center
07:35PM 49.0000 -112.2333 140° Southeast 480 552 37,000  Level Edmonton Center
07:36PM 48.9167 -112.1167 137° Southeast 480 552 37,000  Level Edmonton Center
07:37PM 48.8667 -111.9958 122° Southeast 489 563 37,000  Level Salt Lake Center
07:38PM 48.7625 -111.8636 140° Southeast 489 563 37,000  Level Salt Lake Center
07:39PM 48.6383 -111.7036 140° Southeast 489 563 37,000 -60 Level Salt Lake Center
07:40PM 48.5339 -111.5725 140° Southeast 489 563 36,900  Descending Salt Lake Center
07:41PM 48.4286 -111.4400 140° Southeast 492 566 37,000  Climbing Salt Lake Center
07:42PM 48.3253 -111.3100 140° Southeast 488 562 37,000 -60 Level Salt Lake Center
07:43PM 48.2208 -111.1819 141° Southeast 485 558 36,900 -60 Descending Salt Lake Center
07:44PM 48.1164 -111.0522 140° Southeast 486 559 36,900  Level Salt Lake Center
07:45PM 48.0117 -110.9231 140° Southeast 485 558 37,000  Climbing Salt Lake Center
07:46PM 47.9061 -110.7942 141° Southeast 487 560 37,000 -60 Level Salt Lake Center
07:47PM 47.8017 -110.6661 141° Southeast 485 558 36,900  Descending Salt Lake Center
07:48PM 47.6758 -110.5139 141° Southeast 484 557 37,000  Climbing Salt Lake Center
07:49PM 47.5719 -110.3869 140° Southeast 483 556 36,900 -60 Descending Salt Lake Center
07:50PM 47.4669 -110.2617 141° Southeast 484 557 36,900  Level Salt Lake Center
07:51PM 47.3622 -110.1389 142° Southeast 480 552 37,000  Climbing Salt Lake Center
07:52PM 47.2583 -110.0150 141° Southeast 481 554 37,000  Level Salt Lake Center
07:53PM 47.1547 -109.8886 140° Southeast 482 555 37,000  Level Salt Lake Center
07:54PM 47.0503 -109.7656 141° Southeast 483 556 37,000  Level Salt Lake Center
07:55PM 46.9453 -109.6433 142° Southeast 483 556 37,000  Level Salt Lake Center
07:56PM 46.8203 -109.4961 141° Southeast 481 554 37,000 -60 Level Salt Lake Center
07:57PM 46.7164 -109.3756 141° Southeast 480 552 36,900  Descending Salt Lake Center
07:58PM 46.6153 -109.2642 143° Southeast 480 552 37,000  Climbing Salt Lake Center
07:59PM 46.4992 -109.1314 142° Southeast 476 548 37,000  Level Salt Lake Center
08:00PM 46.3994 -109.0197 142° Southeast 473 544 37,000  Level Salt Lake Center
08:01PM 46.2839 -108.8897 142° Southeast 473 544 37,000  Level Salt Lake Center
08:02PM 46.1850 -108.7781 142° Southeast 471 542 37,000  Level Salt Lake Center
08:03PM 46.0836 -108.6656 142° Southeast 479 551 37,000  Level Salt Lake Center
08:04PM 45.9658 -108.5353 142° Southeast 477 549 37,000  Level Salt Lake Center
08:06PM 45.8656 -108.4247 142° Southeast 475 547 37,000  Level Salt Lake Center
08:07PM 45.7486 -108.2969 143° Southeast 474 545 37,000  Level Salt Lake Center
08:08PM 45.6478 -108.1850 142° Southeast 477 549 37,000  Level Salt Lake Center
08:09PM 45.5458 -108.0747 143° Southeast 481 554 37,000  Level Salt Lake Center
08:10PM 45.4289 -107.9469 143° Southeast 473 544 37,000  Level Salt Lake Center
08:11PM 45.3275 -107.8369 143° Southeast 476 548 37,000  Level Salt Lake Center
08:12PM 45.2094 -107.7106 143° Southeast 473 544 37,000  Level Salt Lake Center
08:13PM 45.1086 -107.6019 143° Southeast 473 544 37,000  Level Salt Lake Center
08:14PM 45.0072 -107.4950 143° Southeast 470 541 37,000  Level Salt Lake Center
08:15PM 44.8875 -107.3694 143° Southeast 474 545 37,000  Level Salt Lake Center
08:16PM 44.7839 -107.2608 143° Southeast 479 551 37,000  Level Salt Lake Center
08:17PM 44.6819 -107.1531 143° Southeast 479 551 37,000  Level Salt Lake Center
08:18PM 44.5633 -107.0286 143° Southeast 477 549 37,000  Level Salt Lake Center
08:19PM 44.4600 -106.9244 144° Southeast 477 549 37,000  Level Salt Lake Center
08:20PM 44.3564 -106.8183 144° Southeast 481 554 37,000  Level Salt Lake Center
08:21PM 44.2372 -106.6933 143° Southeast 481 554 37,000  Level Salt Lake Center
08:22PM 44.1358 -106.5883 143° Southeast 476 548 37,000  Level Salt Lake Center
08:22PM 44.0664 -106.5169 144° Southeast 472 543 37,000  Level Denver Center
08:23PM 43.9661 -106.4147 144° Southeast 467 537 37,000 -60 Level Denver Center
08:25PM 43.8661 -106.3128 144° Southeast 467 537 36,900  Descending Denver Center
08:26PM 43.7483 -106.1944 144° Southeast 470 541 37,000 60 Climbing Denver Center
08:27PM 43.6486 -106.0947 144° Southeast 464 534 37,100  Climbing Denver Center
08:28PM 43.5331 -105.9792 144° Southeast 459 528 37,000 -60 Descending Denver Center
08:29PM 43.4347 -105.8814 144° Southeast 456 525 37,000  Level Denver Center
08:30PM 43.3383 -105.7861 144° Southeast 449 517 37,000  Level Denver Center
08:31PM 43.2261 -105.6767 145° Southeast 444 511 37,000  Level Denver Center
08:32PM 43.1319 -105.5833 144° Southeast 438 504 37,000  Level Denver Center
08:33PM 43.0042 -105.4583 144° Southeast 442 509 37,000  Level Denver Center
08:34PM 42.9086 -105.3636 144° Southeast 443 510 37,000  Level Denver Center
08:35PM 42.7908 -105.2511 145° Southeast 459 528 37,000  Level Denver Center
08:36PM 42.6892 -105.1536 145° Southeast 466 536 37,000  Level Denver Center
08:37PM 42.5692 -105.0389 145° Southeast 474 545 37,100  Climbing Denver Center
08:38PM 42.4681 -104.9431 145° Southeast 471 542 37,100 -60 Level Denver Center
08:39PM 42.3361 -104.8164 145° Southeast 461 531 37,000 -60 Descending Denver Center
08:40PM 42.2353 -104.7225 145° Southeast 463 533 37,000  Level Denver Center
08:41PM 42.1153 -104.6083 145° Southeast 473 544 37,000  Level Denver Center
08:42PM 42.0106 -104.5106 145° Southeast 480 552 37,000  Level Denver Center
08:43PM 41.8878 -104.3944 145° Southeast 484 557 37,000  Level Denver Center
08:44PM 41.7822 -104.2950 145° Southeast 485 558 37,000  Level Denver Center
08:45PM 41.6592 -104.1836 146° Southeast 478 550 37,000  Level Denver Center
08:47PM 41.5369 -104.0706 145° Southeast 481 554 37,000  Level Denver Center
08:48PM 41.4206 -103.9628 145° Southeast 457 526 37,000  Level Denver Center
08:49PM 41.3208 -103.8722 146° Southeast 453 521 37,000  Level Denver Center
08:50PM 41.2222 -103.7819 145° Southeast 452 520 37,000  Level Denver Center
08:51PM 41.1053 -103.6767 146° Southeast 453 521 37,000  Level Denver Center
08:52PM 41.0053 -103.5856 145° Southeast 457 526 37,000  Level Denver Center
08:53PM 40.8953 -103.4878 146° Southeast 459 528 37,000  Level Denver Center
08:54PM 40.7869 -103.3900 146° Southeast 464 534 37,000  Level Denver Center
08:55PM 40.6783 -103.2931 146° Southeast 465 535 37,100  Climbing Denver Center
08:56PM 40.5717 -103.1986 146° Southeast 459 528 37,000 -60 Descending Denver Center
08:57PM 40.4667 -103.1044 146° Southeast 454 522 37,000  Level Denver Center
08:58PM 40.3614 -103.0133 147° Southeast 449 517 37,000 -60 Level Denver Center
08:59PM 40.2397 -102.9058 146° Southeast 448 516 36,900  Descending Denver Center
09:00PM 40.1328 -102.8114 146° Southeast 456 525 37,000  Climbing Denver Center
09:01PM 40.0236 -102.7167 146° Southeast 460 529 37,000  Level Denver Center
09:02PM 39.9094 -102.6181 146° Southeast 473 544 37,000  Level Denver Center
09:03PM 39.8225 -102.5433 147° Southeast 470 541 37,000  Level Denver Center
09:04PM 39.7039 -102.4403 146° Southeast 464 534 37,000  Level Denver Center
09:05PM 39.5839 -102.3383 147° Southeast 463 533 37,000  Level Denver Center
09:06PM 39.4808 -102.2500 147° Southeast 464 534 37,000  Level Denver Center
09:07PM 39.3606 -102.1475 147° Southeast 464 534 37,000  Level Denver Center
09:08PM 39.2550 -102.0572 146° Southeast 455 524 37,000  Level Denver Center
09:09PM 39.1519 -101.9714 147° Southeast 458 527 37,000  Level Denver Center
09:10PM 39.0292 -101.8683 147° Southeast 470 541 37,000  Level Denver Center
09:11PM 38.9247 -101.7794 146° Southeast 470 541 37,000  Level Denver Center
09:12PM 38.8197 -101.6922 147° Southeast 468 539 37,000  Level Denver Center
09:13PM 38.6986 -101.5919 147° Southeast 463 533 37,000  Level Denver Center
09:14PM 38.5950 -101.5050 147° Southeast 464 534 37,000  Level Denver Center
09:15PM 38.4736 -101.4061 147° Southeast 465 535 37,000  Level Denver Center
09:16PM 38.3703 -101.3211 147° Southeast 462 532 37,000  Level Denver Center
09:17PM 38.2661 -101.2347 147° Southeast 464 534 37,000  Level Denver Center
09:18PM 38.1436 -101.1358 148° Southeast 466 536 37,000  Level Denver Center
09:19PM 38.0397 -101.0506 147° Southeast 465 535 37,000  Level Denver Center
09:20PM 37.9194 -100.9528 147° Southeast 459 528 37,000  Level Denver Center
09:21PM 37.8511 -100.8967 147° Southeast 456 525 37,000  Level Kansas City Center
09:22PM 37.7456 -100.8103 147° Southeast 449 517 37,000  Level Kansas City Center
09:23PM 37.6378 -100.7239 148° Southeast 457 526 37,000  Level Kansas City Center
09:24PM 37.5308 -100.6389 148° Southeast 455 524 37,000  Level Kansas City Center
09:25PM 37.4194 -100.5506 148° Southeast 456 525 37,000  Level Kansas City Center
09:26PM 37.3161 -100.4689 148° Southeast 457 526 37,000  Level Kansas City Center
09:27PM 37.1947 -100.3728 148° Southeast 461 531 37,000  Level Kansas City Center
09:28PM 37.0908 -100.2911 148° Southeast 461 531 37,000  Level Kansas City Center
09:29PM 36.9711 -100.1969 148° Southeast 456 525 37,000  Level Kansas City Center
09:30PM 36.8689 -100.1164 148° Southeast 453 521 37,000  Level Kansas City Center
09:31PM 36.7542 -100.0272 148° Southeast 451 519 37,000  Level Kansas City Center
09:32PM 36.6481 -99.9433 148° Southeast 453 521 37,000  Level Kansas City Center
09:33PM 36.5406 -99.8614 149° Southeast 452 520 37,000  Level Kansas City Center
09:34PM 36.4308 -99.7756 148° Southeast 463 533 37,000  Level Kansas City Center
09:35PM 36.3219 -99.6925 148° Southeast 461 531 37,000  Level Kansas City Center
09:36PM 36.2142 -99.6094 148° Southeast 457 526 37,000  Level Kansas City Center
09:37PM 36.1072 -99.5281 148° Southeast 454 522 37,000  Level Kansas City Center
09:39PM 35.9800 -99.4308 148° Southeast 452 520 37,000  Level Kansas City Center
09:40PM 35.8733 -99.3517 149° Southeast 454 522 37,000  Level Kansas City Center
09:40PM 35.8028 -99.2997 149° Southeast 466 536 37,000  Level Fort Worth Center
09:41PM 35.6914 -99.2153 148° Southeast 466 536 37,000  Level Fort Worth Center
09:42PM 35.5842 -99.1339 148° Southeast 466 536 37,000  Level Fort Worth Center
09:43PM 35.4725 -99.0575 151° Southeast 466 536 37,000  Level Fort Worth Center
09:44PM 35.3608 -98.9842 152° Southeast 461 531 37,000  Level Fort Worth Center
09:45PM 35.2492 -98.9083 151° Southeast 456 525 37,000  Level Fort Worth Center
09:46PM 35.1394 -98.8328 151° Southeast 456 525 37,000  Level Fort Worth Center
09:47PM 35.0278 -98.7572 151° Southeast 456 525 37,000  Level Fort Worth Center
09:48PM 34.9158 -98.6847 152° Southeast 456 525 37,000  Level Fort Worth Center
09:49PM 34.8061 -98.6097 151° Southeast 456 525 37,000  Level Fort Worth Center
09:50PM 34.6942 -98.5350 151° Southeast 456 525 37,000  Level Fort Worth Center
09:51PM 34.5800 -98.4653 153° Southeast 456 525 37,000  Level Fort Worth Center
09:52PM 34.4511 -98.3831 152° Southeast 456 525 37,000  Level Fort Worth Center
09:53PM 34.3350 -98.3039 151° Southeast 469 540 37,000  Level Fort Worth Center
09:54PM 34.2208 -98.2297 152° Southeast 469 540 37,000  Level Fort Worth Center
09:55PM 34.1044 -98.1533 151° Southeast 469 540 37,000  Level Fort Worth Center
09:56PM 33.9919 -98.0797 152° Southeast 469 540 37,000  Level Fort Worth Center
09:57PM 33.8756 -98.0039 152° Southeast 469 540 37,000  Level Fort Worth Center
09:58PM 33.7633 -97.9256 150° Southeast 469 540 37,000  Level Fort Worth Center
09:59PM 33.6508 -97.8525 152° Southeast 475 547 37,000  Level Fort Worth Center
10:00PM 33.5364 -97.7797 152° Southeast 467 537 37,000  Level Fort Worth Center
10:01PM 33.4217 -97.7072 152° Southeast 467 537 37,000  Level Fort Worth Center
10:02PM 33.3175 -97.6397 152° Southeast 467 537 37,000  Level Fort Worth Center
10:03PM 33.2047 -97.5672 152° Southeast 467 537 37,000  Level Fort Worth Center
10:04PM 33.0797 -97.4853 151° Southeast 467 537 37,000  Level Fort Worth Center
10:05PM 32.9733 -97.4233 154° Southeast 472 543 37,000  Level Fort Worth Center
10:06PM 32.8417 -97.3442 153° Southeast 472 543 37,000  Level Fort Worth Center
10:07PM 32.7372 -97.2875 155° Southeast 467 537 37,000  Level Fort Worth Center
10:08PM 32.6078 -97.2111 154° Southeast 462 532 37,000  Level Fort Worth Center
10:09PM 32.5033 -97.1497 154° Southeast 462 532 37,000  Level Fort Worth Center
10:10PM 32.3736 -97.0739 154° Southeast 469 540 37,000  Level Fort Worth Center
10:12PM 32.1519 -96.9497 155° Southeast 463 533 37,000  Level Fort Worth Center
10:13PM 32.0347 -96.8792 153° Southeast 469 540 37,000 -180 Level Fort Worth Center
10:14PM 31.9175 -96.8114 154° Southeast 469 540 36,700 -1,200 Descending Fort Worth Center
10:15PM 31.7897 -96.7389 154° Southeast 469 540 34,600 -2,220 Descending Fort Worth Center
10:17PM 31.6631 -96.6279 143° Southeast  Level FlightAware Approximate
10:18PM 31.4281 -96.5167 161° South 464 534 27,500  Level Houston Center
10:19PM 31.3153 -96.4389 149° Southeast 463 533 25,100 -1,740 Descending Houston Center
10:20PM 31.2050 -96.3647 150° Southeast 452 520 24,000 -600 Descending Houston Center
10:21PM 31.0947 -96.2900 150° Southeast 452 520 24,000 -720 Level Houston Center
10:22PM 30.9847 -96.2164 150° Southeast 450 518 22,600 -1,440 Descending Houston Center
10:23PM 30.8764 -96.1433 150° Southeast 445 512 21,100 -1,560 Descending Houston Center
10:24PM 30.8759 -96.2737 161° South  Level FlightAware Approximate
10:24PM 30.7706 -96.0722 150° Southeast 436 502 19,500  Level Houston Center
10:26PM 30.6581 -95.9994 151° Southeast 439 505 17,000 -2,460 Descending Houston Center
10:26PM 30.5936 -95.9583 151° Southeast 437 503 15,600 -2,280 Descending Houston Center
10:27PM 30.5542 -95.9303 149° Southeast 431 496 14,700 -2,580 Descending Houston Center
10:27PM 30.4933 -95.8897 150° Southeast 404 465 13,000 -2,580 Descending Houston Center
10:28PM 30.4581 -95.8650 149° Southeast 405 466 12,100 -1,020 Descending Houston Center
10:28PM 30.4094 -95.8172 140° Southeast 361 415 12,000  Descending Houston Center
10:29PM 30.3833 -95.7892 137° Southeast 361 415 12,100 -840 Climbing Houston Center
10:29PM 30.3400 -95.7456 139° Southeast 304 350 11,200 -1,440 Descending Houston Center
10:30PM 30.3194 -95.7228 136° Southeast 318 366 10,700 -1,620 Descending Houston Center
10:30PM 30.2775 -95.6803 139° Southeast 305 351 9,600 -1,620 Descending Houston Center
10:31PM 30.2572 -95.6581 137° Southeast 304 350 9,100 -1,500 Descending Houston Center
10:31PM 30.2153 -95.6175 140° Southeast 287 330 8,100 -1,500 Descending Houston Center
10:32PM 30.1986 -95.5975 134° Southeast 288 331 7,600 -1,140 Descending Houston Center
10:32PM 30.1572 -95.5542 138° Southeast 280 322 7,000 -600 Descending Houston Center
10:33PM 30.1411 -95.5369 137° Southeast 281 323 7,000  Level Houston Center
10:33PM 30.1050 -95.4881 130° Southeast 284 327 7,000 60 Level Houston Center
10:34PM 30.1058 -95.4614 88° East 295 339 7,100  Climbing Houston Center
10:34PM 30.1053 -95.3986 91° East 282 325 7,000 -540 Descending Houston Center
10:35PM 30.1058 -95.3703 89° East 284 327 6,600 -1,020 Descending Houston Center
10:35PM 30.1050 -95.3044 91° East 274 315 6,000 -600 Descending Houston Center
10:36PM 30.1061 -95.2803 87° East 280 322 6,000 -900 Level Houston Center
10:36PM 30.1053 -95.2150 91° East 278 320 5,100 -1,320 Descending Houston Center
10:37PM 30.1019 -95.1917 99° East 282 325 4,700 -1,380 Descending Houston Center
10:37PM 30.0564 -95.1631 151° Southeast 261 300 3,700 -1,140 Descending Houston Center
10:38PM 30.0381 -95.1647 184° South 261 300 3,600 -240 Descending Houston Center